Terminal Aerodrome Forecast
Issued by NWS

Home | Current Version | Previous Version | Text Only | Print | Product List | Glossary On
Versions: 1 2 3 4 5 6 7 8 9 10 11 12 13 14 15
015
FTUS45 KRIW 222048 AAB
TAFJAC
TAF AMD
KJAC 222048Z 2221/2318 25008G16KT P6SM BKN060
     FM222300 20008G16KT P6SM VCSH BKN060
     FM230200 VRB06KT P6SM FEW060
     FM230900 VRB06KT P6SM VCSH SCT040 OVC060
     FM231100 VRB08KT 5SM -SHRASN SCT015 OVC025
      AMD LTD TO CLD VIS AND WIND=

USA.gov is the U.S. government's official web portal to all federal, state and local government web resources and services.